Time;durP1;ratioP1;P1;durP2;ratioP2;P2;SDS_P1;SDS_P2;PMS_P1;PMS_P2;Temp;Humidity;BMP_temperature;BMP_pressure;BME280_temperature;BME280_humidity;BME280_pressure;Samples;Min_cycle;Max_cycle;Signal;HPM_P1;HPM_P2
2021/07/03 00:00:44;;;;;;;0.85;0.85;;;16.50;99.90;;;;;;5051657;28;20181;-69
2021/07/03 00:03:10;;;;;;;0.98;0.68;;;16.50;99.90;;;;;;5065654;28;20177;-69
2021/07/03 00:05:36;;;;;;;0.40;0.40;;;16.40;99.90;;;;;;5066971;28;20187;-69
2021/07/03 00:08:02;;;;;;;0.30;0.30;;;16.50;99.90;;;;;;5048614;28;20197;-69
2021/07/03 00:10:27;;;;;;;3.65;1.23;;;16.50;99.90;;;;;;5049928;28;20217;-69
2021/07/03 00:12:53;;;;;;;0.55;0.55;;;16.50;99.90;;;;;;5049747;28;20191;-70
2021/07/03 00:15:21;;;;;;;0.00;0.00;;;16.20;99.90;;;;;;5049841;28;20185;-68
2021/07/03 00:17:52;;;;;;;0.73;0.73;;;16.20;99.90;;;;;;5049529;28;20264;-69
2021/07/03 00:20:18;;;;;;;0.20;0.20;;;16.30;99.90;;;;;;5049668;28;20248;-69
2021/07/03 00:22:45;;;;;;;0.10;0.10;;;16.20;99.90;;;;;;5049589;28;20193;-68
2021/07/03 00:25:12;;;;;;;0.68;0.68;;;16.10;99.90;;;;;;5048307;28;20182;-69
2021/07/03 00:27:38;;;;;;;0.77;0.25;;;16.00;99.90;;;;;;5049684;28;20161;-69
2021/07/03 00:30:06;;;;;;;0.30;0.30;;;16.10;99.90;;;;;;5054752;28;20204;-69
2021/07/03 00:32:31;;;;;;;1.42;1.30;;;16.20;99.90;;;;;;5069514;28;20212;-69
2021/07/03 00:34:57;;;;;;;0.75;0.55;;;16.20;99.90;;;;;;5069462;28;20153;-69
2021/07/03 00:37:23;;;;;;;0.57;0.52;;;16.40;99.90;;;;;;5069372;28;20157;-68
2021/07/03 00:39:49;;;;;;;0.55;0.55;;;16.30;99.90;;;;;;5056440;28;20645;-69
2021/07/03 00:42:15;;;;;;;1.45;0.38;;;16.40;99.90;;;;;;5049307;28;20190;-69
2021/07/03 00:44:42;;;;;;;0.65;0.65;;;16.50;99.90;;;;;;5049308;28;20162;-69
2021/07/03 00:47:09;;;;;;;0.57;0.30;;;16.40;99.90;;;;;;5082397;28;20251;-70
2021/07/03 00:49:36;;;;;;;0.70;0.70;;;16.40;99.90;;;;;;5071126;28;20176;-69
2021/07/03 00:52:04;;;;;;;0.25;0.25;;;16.40;99.90;;;;;;5071277;28;20231;-69
2021/07/03 00:54:33;;;;;;;0.65;0.65;;;16.50;99.90;;;;;;5089192;28;20160;-68
2021/07/03 00:57:03;;;;;;;0.50;0.50;;;16.40;99.90;;;;;;5089091;28;20152;-68
2021/07/03 00:59:36;;;;;;;0.55;0.55;;;16.40;99.90;;;;;;5071127;28;20198;-69
2021/07/03 01:02:03;;;;;;;0.10;0.10;;;16.50;99.90;;;;;;5089135;28;20192;-69
2021/07/03 01:04:30;;;;;;;1.73;0.55;;;16.40;99.90;;;;;;5089051;28;20162;-69
2021/07/03 01:06:57;;;;;;;0.95;0.95;;;16.50;99.90;;;;;;5089113;28;20182;-69
2021/07/03 01:09:25;;;;;;;0.57;0.57;;;16.60;99.90;;;;;;5088993;28;20152;-69
2021/07/03 01:11:52;;;;;;;0.40;0.40;;;16.60;99.90;;;;;;5088852;28;20200;-69
2021/07/03 01:14:19;;;;;;;0.75;0.73;;;16.70;99.90;;;;;;5089030;28;20180;-69
2021/07/03 01:16:47;;;;;;;0.20;0.20;;;16.70;99.90;;;;;;5088938;28;20215;-68
2021/07/03 01:19:13;;;;;;;0.88;0.55;;;16.70;99.90;;;;;;5088929;28;20157;-69
2021/07/03 01:21:39;;;;;;;1.00;1.00;;;16.70;99.90;;;;;;5088858;28;20236;-69
2021/07/03 01:24:06;;;;;;;1.70;0.82;;;16.70;99.90;;;;;;5088841;28;20159;-70
2021/07/03 01:26:46;;;;;;;0.35;0.35;;;16.60;99.90;;;;;;5088871;28;20230;-69
2021/07/03 01:29:13;;;;;;;0.57;0.55;;;16.50;99.90;;;;;;5089833;28;20166;-69
2021/07/03 01:31:41;;;;;;;0.30;0.30;;;16.60;99.90;;;;;;5074783;28;20207;-69
2021/07/03 01:34:07;;;;;;;0.20;0.20;;;16.60;99.90;;;;;;5092990;28;20215;-69
2021/07/03 01:36:34;;;;;;;2.50;1.42;;;16.60;99.90;;;;;;5074769;28;20168;-69
2021/07/03 01:39:00;;;;;;;0.68;0.68;;;16.70;99.90;;;;;;5092842;28;20160;-68
2021/07/03 01:41:26;;;;;;;0.95;0.47;;;16.70;99.90;;;;;;5088768;28;20195;-69
2021/07/03 01:43:52;;;;;;;0.93;0.57;;;16.70;99.90;;;;;;5092501;28;20639;-69
2021/07/03 01:46:18;;;;;;;0.30;0.30;;;16.70;99.90;;;;;;5092534;28;20288;-68
2021/07/03 01:48:44;;;;;;;0.38;0.38;;;16.70;99.90;;;;;;5074527;28;20171;-69
2021/07/03 01:51:10;;;;;;;0.30;0.30;;;16.60;99.90;;;;;;5091947;28;20256;-69
2021/07/03 01:53:36;;;;;;;0.60;0.60;;;16.60;99.90;;;;;;5092715;28;20160;-69
2021/07/03 01:56:02;;;;;;;1.20;1.10;;;16.60;99.90;;;;;;5092643;28;20166;-69
2021/07/03 01:58:29;;;;;;;1.08;1.08;;;16.60;99.90;;;;;;5092456;28;20168;-69
2021/07/03 02:00:58;;;;;;;0.65;0.60;;;16.60;99.90;;;;;;5092401;28;20172;-68
2021/07/03 02:03:25;;;;;;;0.35;0.35;;;16.60;99.90;;;;;;5092254;28;20188;-69
2021/07/03 02:05:53;;;;;;;4.50;0.40;;;16.50;99.90;;;;;;5092215;28;20172;-69
2021/07/03 02:08:20;;;;;;;0.40;0.40;;;16.50;99.90;;;;;;5092267;28;20191;-69
2021/07/03 02:10:46;;;;;;;1.73;1.25;;;16.40;99.90;;;;;;5092269;28;20192;-69
2021/07/03 02:13:12;;;;;;;0.57;0.57;;;16.40;99.90;;;;;;5092075;28;20198;-69
2021/07/03 02:15:38;;;;;;;1.95;0.63;;;16.50;99.90;;;;;;5092080;28;20164;-68
2021/07/03 02:18:05;;;;;;;0.40;0.40;;;16.40;99.90;;;;;;5092150;28;20219;-69
2021/07/03 02:20:32;;;;;;;0.43;0.43;;;16.40;99.90;;;;;;5092090;28;20222;-68
2021/07/03 02:22:59;;;;;;;0.90;0.90;;;16.40;99.90;;;;;;5091960;28;20188;-69
2021/07/03 02:25:26;;;;;;;0.32;0.32;;;16.40;99.90;;;;;;5091906;28;20181;-69
2021/07/03 02:27:52;;;;;;;1.52;0.80;;;16.30;99.90;;;;;;5091928;28;20163;-69
2021/07/03 02:30:19;;;;;;;0.30;0.30;;;16.30;99.90;;;;;;5073915;28;20199;-69
2021/07/03 02:32:46;;;;;;;0.65;0.65;;;16.40;99.90;;;;;;5073717;28;20192;-69
2021/07/03 02:35:14;;;;;;;0.52;0.52;;;16.40;99.90;;;;;;5091658;28;20171;-69
2021/07/03 02:37:41;;;;;;;0.22;0.22;;;16.40;99.90;;;;;;5091570;28;20159;-69
2021/07/03 02:40:10;;;;;;;0.60;0.60;;;16.40;99.90;;;;;;5091581;28;20189;-69
2021/07/03 02:42:37;;;;;;;1.00;0.80;;;16.50;99.90;;;;;;5091463;28;20200;-69
2021/07/03 02:45:09;;;;;;;0.20;0.20;;;16.40;99.90;;;;;;5091667;28;20492;-69
2021/07/03 02:47:36;;;;;;;0.65;0.65;;;16.30;99.90;;;;;;5073747;28;20176;-69
2021/07/03 02:50:04;;;;;;;0.20;0.20;;;16.40;99.90;;;;;;5091696;28;20199;-69
2021/07/03 02:52:30;;;;;;;0.32;0.32;;;16.30;99.90;;;;;;5091452;28;20184;-69
2021/07/03 02:54:56;;;;;;;1.20;1.20;;;16.30;99.90;;;;;;5073571;28;20178;-68
2021/07/03 02:57:22;;;;;;;1.05;0.98;;;16.20;99.90;;;;;;5091698;28;20167;-69
2021/07/03 02:59:48;;;;;;;0.73;0.73;;;16.20;99.90;;;;;;5091623;28;20164;-69
2021/07/03 03:02:13;;;;;;;3.85;0.52;;;16.10;99.90;;;;;;5091472;28;20526;-68
2021/07/03 03:04:39;;;;;;;4.95;0.75;;;16.00;99.90;;;;;;5091442;28;20160;-69
2021/07/03 03:07:06;;;;;;;0.73;0.73;;;16.00;99.90;;;;;;5091455;28;20203;-69
2021/07/03 03:09:32;;;;;;;0.55;0.55;;;16.00;99.90;;;;;;5091456;28;20213;-70
2021/07/03 03:11:58;;;;;;;0.20;0.20;;;15.80;99.90;;;;;;5091215;28;20207;-69
2021/07/03 03:14:24;;;;;;;1.00;1.00;;;15.70;99.90;;;;;;5091348;28;20152;-68
2021/07/03 03:16:51;;;;;;;0.22;0.22;;;15.70;99.90;;;;;;5091201;28;20158;-69
2021/07/03 03:19:17;;;;;;;1.48;0.68;;;15.60;99.90;;;;;;5091248;28;20164;-69
2021/07/03 03:21:43;;;;;;;1.80;0.60;;;15.60;99.90;;;;;;5091155;28;20195;-69
2021/07/03 03:24:10;;;;;;;1.83;1.17;;;15.50;99.90;;;;;;5091108;28;20160;-69
2021/07/03 03:26:36;;;;;;;0.30;0.30;;;15.40;99.90;;;;;;5090960;28;20170;-68
2021/07/03 03:29:03;;;;;;;0.45;0.45;;;15.30;99.90;;;;;;5090882;28;20168;-70
2021/07/03 03:31:29;;;;;;;0.70;0.70;;;15.30;99.90;;;;;;5090775;28;20230;-69
2021/07/03 03:33:56;;;;;;;0.85;0.63;;;15.30;99.90;;;;;;5090924;28;20616;-68
2021/07/03 03:36:22;;;;;;;0.30;0.30;;;15.40;99.90;;;;;;5090837;28;20195;-68
2021/07/03 03:38:49;;;;;;;0.20;0.20;;;15.40;99.90;;;;;;5090957;28;20161;-69
2021/07/03 03:41:14;;;;;;;0.65;0.38;;;15.30;99.90;;;;;;5090849;28;20195;-68
2021/07/03 03:43:41;;;;;;;1.08;0.98;;;15.40;99.90;;;;;;5072778;28;20164;-69
2021/07/03 03:46:07;;;;;;;0.70;0.70;;;15.40;99.90;;;;;;5072583;28;20279;-68
2021/07/03 03:48:33;;;;;;;0.80;0.80;;;15.40;99.90;;;;;;5090680;28;20170;-69
2021/07/03 03:50:59;;;;;;;1.15;1.02;;;15.50;99.90;;;;;;5090889;28;20652;-69
2021/07/03 03:53:26;;;;;;;1.00;0.45;;;15.50;99.90;;;;;;5090029;28;20187;-69
2021/07/03 03:55:52;;;;;;;1.83;0.88;;;15.70;99.90;;;;;;5072957;28;20175;-69
2021/07/03 03:58:18;;;;;;;0.63;0.50;;;16.20;99.90;;;;;;5090343;28;20181;-68
2021/07/03 04:00:44;;;;;;;1.48;1.35;;;16.80;99.90;;;;;;5090429;28;20164;-69
2021/07/03 04:03:11;;;;;;;0.38;0.38;;;17.50;99.90;;;;;;5072170;28;20192;-68
2021/07/03 04:05:37;;;;;;;0.30;0.30;;;18.10;99.90;;;;;;5090168;28;20168;-68
2021/07/03 04:08:03;;;;;;;2.58;0.60;;;18.50;99.90;;;;;;5090222;28;20190;-68
2021/07/03 04:10:30;;;;;;;0.28;0.28;;;18.80;99.90;;;;;;5090310;28;20217;-69
2021/07/03 04:12:56;;;;;;;0.63;0.47;;;19.00;99.90;;;;;;5090752;28;20271;-69
2021/07/03 04:15:22;;;;;;;0.40;0.40;;;19.30;99.90;;;;;;5090192;28;20160;-69
2021/07/03 04:17:48;;;;;;;2.08;0.82;;;19.80;99.90;;;;;;5090018;28;20156;-69
2021/07/03 04:20:14;;;;;;;1.55;0.50;;;20.30;99.90;;;;;;5090015;28;20220;-69
2021/07/03 04:22:42;;;;;;;0.00;0.00;;;20.50;99.90;;;;;;5072011;28;20199;-68
2021/07/03 04:25:12;;;;;;;3.30;0.82;;;20.90;99.90;;;;;;5072195;28;20178;-69
2021/07/03 04:27:39;;;;;;;0.47;0.47;;;21.20;99.90;;;;;;5089932;28;20181;-69
2021/07/03 04:30:07;;;;;;;1.13;1.00;;;21.40;99.90;;;;;;5089994;28;20214;-69
2021/07/03 04:32:34;;;;;;;0.82;0.82;;;21.60;99.90;;;;;;5073627;28;20233;-69
2021/07/03 04:35:01;;;;;;;0.70;0.70;;;21.90;99.90;;;;;;5089891;28;20164;-68
2021/07/03 04:37:27;;;;;;;1.05;1.05;;;21.80;99.90;;;;;;5071795;28;20168;-68
2021/07/03 04:39:53;;;;;;;0.50;0.50;;;21.60;99.90;;;;;;5089611;28;20163;-68
2021/07/03 04:42:19;;;;;;;0.70;0.70;;;21.60;99.90;;;;;;5089607;28;20188;-69
2021/07/03 04:44:45;;;;;;;0.47;0.47;;;21.50;99.90;;;;;;5090136;28;20156;-69
2021/07/03 04:47:15;;;;;;;0.80;0.80;;;21.20;99.90;;;;;;5052180;28;20631;-69
2021/07/03 04:49:41;;;;;;;1.13;1.13;;;21.10;99.90;;;;;;5032653;28;20180;-69
2021/07/03 04:52:07;;;;;;;0.70;0.55;;;21.40;99.90;;;;;;5049450;28;20237;-69
2021/07/03 04:54:33;;;;;;;0.30;0.30;;;22.10;99.90;;;;;;5049579;28;20167;-68
2021/07/03 04:57:08;;;;;;;1.15;0.38;;;22.70;99.90;;;;;;5049508;28;20605;-69
2021/07/03 04:59:41;;;;;;;2.10;1.15;;;23.20;99.90;;;;;;5049364;28;20149;-69
2021/07/03 05:02:11;;;;;;;0.73;0.73;;;23.60;99.90;;;;;;5049414;28;20216;-69
2021/07/03 05:04:38;;;;;;;13.73;0.60;;;23.90;99.90;;;;;;5047217;28;20169;-69
2021/07/03 05:07:06;;;;;;;1.52;0.73;;;23.90;99.90;;;;;;5049312;28;20219;-69
2021/07/03 05:09:32;;;;;;;0.55;0.55;;;24.60;99.90;;;;;;5049248;28;20247;-69
2021/07/03 05:11:59;;;;;;;0.43;0.43;;;25.00;99.90;;;;;;5048826;28;20254;-69
2021/07/03 05:14:25;;;;;;;1.50;1.40;;;24.90;99.90;;;;;;5049197;28;20164;-69
2021/07/03 05:16:51;;;;;;;0.95;0.95;;;24.90;99.90;;;;;;5049191;28;20267;-69
2021/07/03 05:19:18;;;;;;;0.40;0.40;;;25.00;99.90;;;;;;5047987;28;20164;-69
2021/07/03 05:21:44;;;;;;;20.77;1.40;;;25.10;99.90;;;;;;5049187;28;20192;-69
2021/07/03 05:24:10;;;;;;;2.85;1.85;;;25.70;99.90;;;;;;5049206;28;20164;-70
2021/07/03 05:26:37;;;;;;;1.23;1.02;;;26.10;99.90;;;;;;5049021;28;20177;-69
2021/07/03 05:29:04;;;;;;;1.05;1.00;;;25.50;99.90;;;;;;5049085;28;20244;-69
2021/07/03 05:31:30;;;;;;;0.55;0.55;;;25.90;99.90;;;;;;5048753;28;20208;-69
2021/07/03 05:33:56;;;;;;;1.02;0.95;;;25.80;99.90;;;;;;5047845;28;20183;-70
2021/07/03 05:36:22;;;;;;;1.60;1.48;;;25.90;99.90;;;;;;5048993;28;20157;-69
2021/07/03 05:38:49;;;;;;;1.20;0.75;;;25.90;99.90;;;;;;5047732;28;20248;-69
2021/07/03 05:41:17;;;;;;;1.08;0.98;;;25.60;99.90;;;;;;5048935;28;20192;-69
2021/07/03 05:43:43;;;;;;;3.83;1.33;;;25.20;99.90;;;;;;5047696;28;20173;-70
2021/07/03 05:46:10;;;;;;;1.25;1.02;;;25.40;99.90;;;;;;5065620;28;20223;-69
2021/07/03 05:48:39;;;;;;;1.27;0.80;;;26.00;99.90;;;;;;5088896;28;20171;-70
2021/07/03 05:51:05;;;;;;;0.43;0.43;;;26.80;99.90;;;;;;5088903;28;20647;-69
2021/07/03 05:53:32;;;;;;;0.20;0.20;;;26.50;99.90;;;;;;5088685;28;20198;-70
2021/07/03 05:55:58;;;;;;;0.85;0.85;;;25.50;99.90;;;;;;5088937;28;20156;-70
2021/07/03 05:58:24;;;;;;;0.82;0.82;;;26.20;99.90;;;;;;5088900;28;20155;-69
2021/07/03 06:00:50;;;;;;;1.98;0.63;;;26.70;99.90;;;;;;5088710;28;20163;-70
2021/07/03 06:03:16;;;;;;;0.77;0.63;;;27.40;99.90;;;;;;5088593;28;20187;-70
2021/07/03 06:05:41;;;;;;;1.80;1.40;;;28.30;99.90;;;;;;5088529;28;20183;-70
2021/07/03 06:08:08;;;;;;;0.55;0.55;;;28.20;99.90;;;;;;5088581;28;20160;-70
2021/07/03 06:10:34;;;;;;;0.22;0.22;;;27.00;99.90;;;;;;5088327;28;20211;-69
2021/07/03 06:13:00;;;;;;;1.02;1.02;;;26.40;99.90;;;;;;5088141;28;20187;-69
2021/07/03 06:15:27;;;;;;;0.60;0.60;;;26.60;99.90;;;;;;5071529;28;20172;-70
2021/07/03 06:17:53;;;;;;;0.45;0.45;;;27.20;99.90;;;;;;5092075;28;20155;-70
2021/07/03 06:20:19;;;;;;;0.60;0.60;;;28.20;99.90;;;;;;5091985;28;20167;-70
2021/07/03 06:22:46;;;;;;;0.82;0.75;;;28.90;99.90;;;;;;5073908;28;20234;-70
2021/07/03 06:25:12;;;;;;;2.10;0.90;;;28.50;99.90;;;;;;5091972;28;20164;-70
2021/07/03 06:27:39;;;;;;;0.50;0.50;;;30.00;99.90;;;;;;5091648;28;20189;-70
2021/07/03 06:30:10;;;;;;;0.10;0.10;;;30.10;99.90;;;;;;5091706;28;20247;-70
2021/07/03 06:32:36;;;;;;;0.68;0.68;;;29.30;99.90;;;;;;5091585;28;20187;-70
2021/07/03 06:35:04;;;;;;;0.52;0.52;;;28.70;99.90;;;;;;5091545;28;20220;-70
2021/07/03 06:37:30;;;;;;;1.13;0.80;;;27.90;99.90;;;;;;5073615;28;20171;-69
2021/07/03 06:39:55;;;;;;;0.90;0.65;;;27.10;99.90;;;;;;5091599;28;20163;-69
2021/07/03 06:42:22;;;;;;;0.93;0.93;;;27.00;99.90;;;;;;5073331;28;20187;-69
2021/07/03 06:44:49;;;;;;;0.85;0.70;;;27.30;99.90;;;;;;5091814;28;20194;-69
2021/07/03 06:47:16;;;;;;;0.40;0.40;;;27.40;99.90;;;;;;5091610;28;20219;-69
2021/07/03 06:49:43;;;;;;;0.68;0.68;;;27.50;99.90;;;;;;5091518;28;20179;-69
2021/07/03 06:52:10;;;;;;;1.02;1.00;;;27.90;99.90;;;;;;5091482;28;20187;-69
2021/07/03 06:54:37;;;;;;;0.52;0.52;;;27.70;99.90;;;;;;5073638;28;20167;-69
2021/07/03 06:57:04;;;;;;;0.73;0.73;;;27.90;99.90;;;;;;5091557;28;20177;-70
2021/07/03 06:59:31;;;;;;;0.82;0.63;;;27.40;99.90;;;;;;5091592;28;20163;-70
2021/07/03 07:01:58;;;;;;;0.80;0.80;;;29.00;99.90;;;;;;5091377;28;20187;-70
2021/07/03 07:04:24;;;;;;;1.85;1.35;;;29.70;99.90;;;;;;5091386;28;20163;-69
2021/07/03 07:06:54;;;;;;;1.40;0.98;;;28.90;99.90;;;;;;5091526;28;20183;-69
2021/07/03 07:09:21;;;;;;;0.30;0.30;;;27.60;99.90;;;;;;5091407;28;20162;-69
2021/07/03 07:11:47;;;;;;;0.28;0.28;;;27.10;99.90;;;;;;5091280;28;20207;-69
2021/07/03 07:14:13;;;;;;;0.80;0.80;;;27.30;99.90;;;;;;5091284;28;20160;-69
2021/07/03 07:16:40;;;;;;;1.02;0.68;;;27.70;99.90;;;;;;5091023;28;20160;-69
2021/07/03 07:19:07;;;;;;;1.33;1.23;;;28.20;99.90;;;;;;5091096;28;20152;-69
2021/07/03 07:21:34;;;;;;;3.92;0.90;;;28.20;99.90;;;;;;5090883;28;20195;-69
2021/07/03 07:24:00;;;;;;;0.32;0.32;;;28.60;99.90;;;;;;5090999;28;20164;-69
2021/07/03 07:26:26;;;;;;;0.82;0.80;;;29.00;99.90;;;;;;5084609;28;20190;-70
2021/07/03 07:28:52;;;;;;;0.40;0.40;;;29.40;99.90;;;;;;5090171;28;20187;-70
2021/07/03 07:31:19;;;;;;;0.32;0.32;;;31.00;99.90;;;;;;5090796;28;20221;-70
2021/07/03 07:33:46;;;;;;;0.38;0.38;;;32.50;99.90;;;;;;5090866;28;20178;-70
2021/07/03 07:36:13;;;;;;;0.43;0.43;;;32.40;99.90;;;;;;5090356;28;20159;-70
2021/07/03 07:38:39;;;;;;;0.45;0.45;;;32.80;98.40;;;;;;5090675;28;20160;-70
2021/07/03 07:41:06;;;;;;;1.08;0.65;;;33.30;98.60;;;;;;5090668;28;20160;-70
2021/07/03 07:43:32;;;;;;;0.65;0.47;;;32.00;97.40;;;;;;5090554;28;20187;-70
2021/07/03 07:45:57;;;;;;;1.48;0.88;;;31.80;98.00;;;;;;5089875;28;20222;-70
2021/07/03 07:48:26;;;;;;;0.55;0.50;;;32.50;97.80;;;;;;5090464;28;20201;-70
2021/07/03 07:50:56;;;;;;;0.90;0.30;;;33.40;98.00;;;;;;5090154;28;20305;-70
2021/07/03 07:53:23;;;;;;;1.25;1.15;;;32.60;96.20;;;;;;5090393;28;20195;-70
2021/07/03 07:55:50;;;;;;;0.60;0.60;;;32.70;96.20;;;;;;5071851;28;20167;-70
2021/07/03 07:58:16;;;;;;;1.17;0.50;;;32.80;95.70;;;;;;5090251;28;20261;-72
2021/07/03 08:00:43;;;;;;;0.88;0.75;;;32.60;97.90;;;;;;5072164;28;20648;-70
2021/07/03 08:03:09;;;;;;;0.35;0.35;;;33.40;96.30;;;;;;5090180;28;20190;-70
2021/07/03 08:05:35;;;;;;;0.43;0.30;;;33.20;94.50;;;;;;5089664;28;20171;-70
2021/07/03 08:08:05;;;;;;;1.00;0.57;;;31.70;94.30;;;;;;5090052;28;20172;-70
2021/07/03 08:10:39;;;;;;;1.17;0.77;;;31.80;97.20;;;;;;5090054;28;20551;-70
2021/07/03 08:13:06;;;;;;;0.85;0.80;;;31.70;95.40;;;;;;5089910;28;20243;-71
2021/07/03 08:15:32;;;;;;;0.60;0.60;;;31.10;96.80;;;;;;5089387;28;20178;-71
2021/07/03 08:18:00;;;;;;;0.70;0.70;;;30.20;95.00;;;;;;5089865;28;20148;-71
2021/07/03 08:20:26;;;;;;;0.63;0.60;;;29.30;95.10;;;;;;5089637;28;20166;-71
2021/07/03 08:22:54;;;;;;;0.55;0.55;;;30.60;95.10;;;;;;5086256;28;20194;-70
2021/07/03 08:25:21;;;;;;;0.50;0.50;;;31.30;95.40;;;;;;5080421;28;20168;-71
2021/07/03 08:27:48;;;;;;;0.55;0.55;;;32.50;94.60;;;;;;5075627;28;20171;-70
2021/07/03 08:30:16;;;;;;;0.20;0.10;;;33.20;93.20;;;;;;5069529;28;20180;-71
2021/07/03 08:32:42;;;;;;;2.00;0.40;;;32.20;94.50;;;;;;5088450;28;20217;-70
2021/07/03 08:35:09;;;;;;;0.65;0.38;;;32.20;92.10;;;;;;5089265;28;20174;-71
2021/07/03 08:37:36;;;;;;;0.30;0.13;;;33.00;91.80;;;;;;5089400;28;20207;-70
2021/07/03 08:40:04;;;;;;;0.30;0.30;;;32.70;93.70;;;;;;5079831;28;20202;-70
2021/07/03 08:42:30;;;;;;;1.02;0.73;;;31.00;93.40;;;;;;5051456;28;20200;-70
2021/07/03 08:44:56;;;;;;;0.70;0.40;;;31.40;94.30;;;;;;5051422;28;20627;-70
2021/07/03 08:47:23;;;;;;;0.30;0.30;;;31.60;92.50;;;;;;5068662;28;20223;-70
2021/07/03 08:49:57;;;;;;;0.57;0.57;;;31.50;91.90;;;;;;5069450;28;20625;-70
2021/07/03 08:52:24;;;;;;;0.30;0.30;;;30.10;92.80;;;;;;5069188;28;20191;-70
2021/07/03 08:55:06;;;;;;;0.32;0.32;;;29.40;92.20;;;;;;5051029;28;20172;-69
2021/07/03 08:57:41;;;;;;;0.10;0.10;;;30.80;93.00;;;;;;5081792;28;20170;-70
2021/07/03 09:00:08;;;;;;;0.40;0.40;;;32.70;93.20;;;;;;5089013;28;20163;-70
2021/07/03 09:02:37;;;;;;;0.65;0.63;;;32.50;90.10;;;;;;5089014;28;20198;-70
2021/07/03 09:05:20;;;;;;;0.20;0.20;;;32.50;92.00;;;;;;5088743;28;20179;-69
2021/07/03 09:07:46;;;;;;;0.38;0.30;;;31.30;91.70;;;;;;5089194;28;20156;-70
2021/07/03 09:10:12;;;;;;;0.55;0.35;;;32.00;92.30;;;;;;5089033;28;20214;-69
2021/07/03 09:12:39;;;;;;;0.22;0.22;;;32.10;93.50;;;;;;5089101;28;20188;-70
2021/07/03 09:15:20;;;;;;;0.77;0.50;;;33.00;90.20;;;;;;5088655;28;20159;-69
2021/07/03 09:17:50;;;;;;;0.40;0.40;;;33.90;91.20;;;;;;5089171;28;20179;-70
2021/07/03 09:20:26;;;;;;;0.50;0.22;;;34.20;91.00;;;;;;5070930;28;20266;-70
2021/07/03 09:23:02;;;;;;;0.93;0.47;;;35.00;91.90;;;;;;5088611;28;20220;-70
2021/07/03 09:25:28;;;;;;;0.85;0.85;;;35.90;89.70;;;;;;5068403;28;20159;-69
2021/07/03 09:27:55;;;;;;;2.47;0.30;;;34.60;85.80;;;;;;5084548;28;20738;-70
2021/07/03 09:30:23;;;;;;;0.75;0.50;;;34.80;87.60;;;;;;5088844;28;20187;-69
2021/07/03 09:32:51;;;;;;;0.63;0.63;;;35.20;86.00;;;;;;5088730;28;20179;-69
2021/07/03 09:35:18;;;;;;;0.52;0.52;;;34.80;83.80;;;;;;5088300;28;20152;-68
2021/07/03 09:37:44;;;;;;;0.35;0.22;;;33.10;85.20;;;;;;5088825;28;20156;-69
2021/07/03 09:40:11;;;;;;;1.00;0.60;;;33.50;88.60;;;;;;5070879;28;20164;-69
2021/07/03 09:42:38;;;;;;;0.60;0.50;;;33.70;84.90;;;;;;5088643;28;20215;-69
2021/07/03 09:45:06;;;;;;;0.40;0.40;;;33.70;84.20;;;;;;5088342;28;20213;-69
2021/07/03 09:47:33;;;;;;;0.82;0.68;;;34.10;85.50;;;;;;5070591;28;20242;-69
2021/07/03 09:50:13;;;;;;;1.20;0.80;;;34.40;83.50;;;;;;5089022;28;20187;-68
2021/07/03 09:52:39;;;;;;;0.20;0.20;;;34.30;83.60;;;;;;5092550;28;20202;-69
2021/07/03 09:55:10;;;;;;;1.05;0.60;;;32.80;87.80;;;;;;5097672;28;20174;-69
2021/07/03 09:57:38;;;;;;;0.25;0.22;;;31.90;90.30;;;;;;5103972;28;20171;-70
2021/07/03 10:00:10;;;;;;;0.90;0.52;;;33.40;83.70;;;;;;5112878;28;20155;-70
2021/07/03 10:02:37;;;;;;;0.80;0.63;;;34.60;85.70;;;;;;5097124;28;20273;-70
2021/07/03 10:05:04;;;;;;;35.38;1.42;;;35.60;81.00;;;;;;5092116;28;20183;-69
2021/07/03 10:07:38;;;;;;;0.68;0.60;;;35.30;81.70;;;;;;5092084;28;20233;-69
2021/07/03 10:10:18;;;;;;;13.82;0.40;;;35.40;83.40;;;;;;5074189;28;20267;-69
2021/07/03 10:12:50;;;;;;;0.60;0.60;;;35.00;84.10;;;;;;5092216;28;20205;-68
2021/07/03 10:15:32;;;;;;;0.45;0.45;;;33.50;86.10;;;;;;5091561;28;20228;-69
2021/07/03 10:18:15;;;;;;;0.47;0.45;;;31.70;90.40;;;;;;5074256;28;20183;-69
2021/07/03 10:20:44;;;;;;;0.25;0.25;;;31.20;90.50;;;;;;5092191;28;20163;-68
2021/07/03 10:23:12;;;;;;;1.08;0.98;;;30.90;90.50;;;;;;5091958;28;20202;-69
2021/07/03 10:25:43;;;;;;;0.15;0.15;;;32.00;90.80;;;;;;5091516;28;20186;-69
2021/07/03 10:28:12;;;;;;;1.45;0.93;;;32.80;88.30;;;;;;5091816;28;20197;-69
2021/07/03 10:30:41;;;;;;;0.93;0.57;;;32.70;89.90;;;;;;5091942;28;20250;-69
2021/07/03 10:33:17;;;;;;;1.50;0.57;;;32.80;86.80;;;;;;5091859;28;20183;-69
2021/07/03 10:35:49;;;;;;;0.40;0.40;;;31.70;87.50;;;;;;5091261;28;20175;-69
2021/07/03 10:38:27;;;;;;;0.43;0.43;;;32.30;87.10;;;;;;5091883;28;20163;-69
2021/07/03 10:41:11;;;;;;;0.40;0.40;;;32.00;88.70;;;;;;5091606;28;20151;-69
2021/07/03 10:43:50;;;;;;;1.50;0.40;;;32.70;86.00;;;;;;5091703;28;20164;-69
2021/07/03 10:46:34;;;;;;;0.60;0.60;;;33.60;84.30;;;;;;5090921;28;20222;-70
2021/07/03 10:49:06;;;;;;;0.82;0.50;;;34.00;86.10;;;;;;5091625;28;20155;-70
2021/07/03 10:51:44;;;;;;;1.35;1.08;;;34.70;87.70;;;;;;5091571;28;20218;-69
2021/07/03 10:54:18;;;;;;;0.63;0.63;;;34.50;84.80;;;;;;5091525;28;20186;-69
2021/07/03 10:56:51;;;;;;;1.45;1.00;;;34.70;82.40;;;;;;5072895;28;20159;-69
2021/07/03 10:59:24;;;;;;;0.95;0.95;;;33.70;83.60;;;;;;5091416;28;20201;-70
2021/07/03 11:01:52;;;;;;;0.30;0.30;;;33.00;86.00;;;;;;5091234;28;20195;-69
2021/07/03 11:04:20;;;;;;;0.63;0.63;;;33.20;90.90;;;;;;5091482;28;20151;-69
2021/07/03 11:06:55;;;;;;;0.68;0.68;;;33.10;88.30;;;;;;5090895;28;20163;-69
2021/07/03 11:09:29;;;;;;;0.30;0.30;;;32.40;85.00;;;;;;5073379;28;20188;-69
2021/07/03 11:12:10;;;;;;;0.73;0.43;;;32.60;91.60;;;;;;5073037;28;20230;-69
2021/07/03 11:14:46;;;;;;;0.75;0.43;;;32.80;85.70;;;;;;5091243;28;20195;-69
2021/07/03 11:17:14;;;;;;;0.85;0.70;;;32.60;86.60;;;;;;5072649;28;20190;-69
2021/07/03 11:19:43;;;;;;;0.73;0.70;;;30.80;86.20;;;;;;5091095;28;20235;-69
2021/07/03 11:22:11;;;;;;;0.47;0.47;;;30.50;89.70;;;;;;5090891;28;20206;-68
2021/07/03 11:24:47;;;;;;;0.20;0.20;;;30.70;87.40;;;;;;5073014;28;20203;-69
2021/07/03 11:27:25;;;;;;;0.15;0.15;;;31.40;88.00;;;;;;5090261;28;20696;-69
2021/07/03 11:29:51;;;;;;;0.85;0.65;;;32.00;85.50;;;;;;5052604;28;20171;-69
2021/07/03 11:32:17;;;;;;;0.55;0.55;;;31.30;87.30;;;;;;5088597;28;20254;-68
2021/07/03 11:34:56;;;;;;;0.73;0.68;;;30.50;87.70;;;;;;5090957;28;20151;-68
2021/07/03 11:37:33;;;;;;;0.32;0.32;;;30.50;88.60;;;;;;5090226;28;20223;-69
2021/07/03 11:40:02;;;;;;;1.25;0.38;;;30.70;89.40;;;;;;5090687;28;20148;-68
2021/07/03 11:42:31;;;;;;;2.83;0.50;;;30.60;87.80;;;;;;5072485;28;20249;-68
2021/07/03 11:44:58;;;;;;;1.13;0.93;;;29.90;90.10;;;;;;5090567;28;20170;-69
2021/07/03 11:47:40;;;;;;;0.50;0.20;;;29.70;90.10;;;;;;5089905;28;20294;-68
2021/07/03 11:50:20;;;;;;;0.90;0.40;;;29.70;88.50;;;;;;5090442;28;20147;-69
2021/07/03 11:52:46;;;;;;;0.60;0.52;;;30.20;91.40;;;;;;5090244;28;20190;-69
2021/07/03 11:55:15;;;;;;;0.55;0.55;;;31.00;89.30;;;;;;5071821;28;20175;-68
2021/07/03 11:57:43;;;;;;;0.40;0.30;;;31.70;88.00;;;;;;5090462;28;20163;-69
2021/07/03 12:00:21;;;;;;;0.30;0.30;;;31.50;88.80;;;;;;5072175;28;20221;-69
2021/07/03 12:02:48;;;;;;;1.90;1.17;;;31.60;89.30;;;;;;5089861;28;20198;-71
2021/07/03 12:05:18;;;;;;;0.52;0.50;;;32.20;88.30;;;;;;5089642;28;20164;-73
2021/07/03 12:07:54;;;;;;;0.47;0.47;;;31.40;88.80;;;;;;5072018;28;20168;-73
2021/07/03 12:10:20;;;;;;;0.08;0.08;;;31.10;89.50;;;;;;5072019;28;20199;-74
2021/07/03 12:12:52;;;;;;;0.40;0.40;;;30.00;89.60;;;;;;5089405;28;20237;-74
2021/07/03 12:15:18;;;;;;;0.77;0.63;;;29.70;90.40;;;;;;5088516;28;20167;-74
2021/07/03 12:17:49;;;;;;;0.30;0.30;;;29.80;91.00;;;;;;5071944;28;20202;-74
2021/07/03 12:20:17;;;;;;;0.38;0.38;;;30.30;91.80;;;;;;5071484;28;20207;-75
2021/07/03 12:22:55;;;;;;;1.70;1.25;;;29.60;90.80;;;;;;5089621;28;20629;-74
2021/07/03 12:25:23;;;;;;;0.50;0.50;;;28.90;91.60;;;;;;5089645;28;20155;-74
2021/07/03 12:27:55;;;;;;;0.40;0.40;;;28.80;92.40;;;;;;5071331;28;20199;-73
2021/07/03 12:30:22;;;;;;;0.15;0.15;;;28.30;92.50;;;;;;5088881;28;20199;-74
2021/07/03 12:33:03;;;;;;;1.23;0.95;;;28.10;92.60;;;;;;5089537;28;20155;-74
2021/07/03 12:35:36;;;;;;;0.45;0.45;;;28.10;93.00;;;;;;5089622;28;20238;-74
2021/07/03 12:38:03;;;;;;;0.22;0.22;;;27.80;93.20;;;;;;5089346;28;20163;-74
2021/07/03 12:40:57;;;;;;;1.15;0.38;;;27.10;92.50;;;;;;5071192;28;20209;-74
2021/07/03 12:43:31;;;;;;;0.43;0.43;;;26.80;94.30;;;;;;5086772;28;20250;-74
2021/07/03 12:45:59;;;;;;;0.32;0.32;;;27.00;94.20;;;;;;5061408;28;20224;-74
2021/07/03 12:48:35;;;;;;;1.42;1.33;;;26.70;93.30;;;;;;5049080;28;20241;-74
2021/07/03 12:51:03;;;;;;;0.85;0.60;;;26.90;93.70;;;;;;5048995;28;20219;-74